createdAt,value
2022-09-23T00:07:31.978Z,53.57
2022-09-23T00:29:15.743Z,65.96
2022-09-23T00:50:59.308Z,51.68
2022-09-23T01:13:03.959Z,65.93
2022-09-23T01:34:55.231Z,51.25
2022-09-23T01:56:43.785Z,63.87
2022-09-23T02:18:30.190Z,51.41
2022-09-23T02:40:23.090Z,64.62
2022-09-23T03:02:21.064Z,51.50
2022-09-23T03:24:07.752Z,67.29
2022-09-23T03:45:56.428Z,50.64
2022-09-23T04:07:40.494Z,64.17
2022-09-23T04:29:24.869Z,50.40
2022-09-23T04:51:10.361Z,64.47
2022-09-23T05:12:56.905Z,50.84
2022-09-23T05:34:41.040Z,53.67
2022-09-23T05:56:25.782Z,72.27
2022-09-23T06:18:08.971Z,53.59
2022-09-23T06:39:54.293Z,58.01
2022-09-23T07:01:40.240Z,57.02
2022-09-23T07:23:23.413Z,60.07
2022-09-23T07:45:09.219Z,55.12
2022-09-23T08:06:54.147Z,58.03
2022-09-23T08:28:37.240Z,35.66
2022-09-23T08:50:22.754Z,25.54
2022-09-23T09:12:15.599Z,21.68
2022-09-23T09:34:05.711Z,15.12
2022-09-23T09:56:04.562Z,12.57
2022-09-23T10:17:51.203Z,12.87
2022-09-23T10:39:52.876Z,10.50
2022-09-23T11:01:42.886Z,12.67
2022-09-23T11:23:46.316Z,15.61
2022-09-23T11:45:34.196Z,20.50
2022-09-23T12:07:22.481Z,24.57
2022-09-23T12:29:07.388Z,26.95
2022-09-23T12:50:53.941Z,27.85
2022-09-23T13:12:41.981Z,28.04
2022-09-23T13:34:30.454Z,29.19
2022-09-23T13:56:15.220Z,31.58
2022-09-23T14:18:04.018Z,32.72
2022-09-23T14:39:54.486Z,34.00
2022-09-23T15:01:40.444Z,34.32
2022-09-23T15:23:44.293Z,35.38
2022-09-23T15:45:31.438Z,37.98
2022-09-23T16:07:16.669Z,41.09
2022-09-23T16:29:00.675Z,44.34
2022-09-23T16:50:44.293Z,47.06
2022-09-23T17:12:33.024Z,48.40
2022-09-23T17:34:18.138Z,50.24
2022-09-23T17:56:04.147Z,51.78
2022-09-23T18:17:47.326Z,53.83
2022-09-23T18:39:30.471Z,66.90
2022-09-23T19:01:14.401Z,46.57
2022-09-23T19:22:57.240Z,49.91
2022-09-23T19:44:40.549Z,51.44
2022-09-23T20:06:24.610Z,54.80
2022-09-23T20:28:07.641Z,68.08
2022-09-23T20:49:50.878Z,48.23
2022-09-23T21:11:34.077Z,52.77
2022-09-23T21:33:17.681Z,68.54
2022-09-23T21:55:00.622Z,50.00
2022-09-23T22:16:43.928Z,54.59
2022-09-23T22:38:27.082Z,69.04
2022-09-23T23:00:12.779Z,50.18
2022-09-23T23:21:55.867Z,54.51
2022-09-23T23:43:39.633Z,69.33
